sensor_id;sensor_type;location;lat;lon;timestamp;P1;durP1;ratioP1;P2;durP2;ratioP2
20629;SDS011;17386;43.846;25.950;2024-03-17T00:00:14;30.20;;;13.60;;
20629;SDS011;17386;43.846;25.950;2024-03-17T00:02:40;38.20;;;14.25;;
20629;SDS011;17386;43.846;25.950;2024-03-17T00:05:06;32.67;;;15.45;;
20629;SDS011;17386;43.846;25.950;2024-03-17T00:07:32;32.60;;;14.82;;
20629;SDS011;17386;43.846;25.950;2024-03-17T00:09:58;29.90;;;15.38;;
20629;SDS011;17386;43.846;25.950;2024-03-17T00:12:23;34.58;;;13.93;;
20629;SDS011;17386;43.846;25.950;2024-03-17T00:14:49;28.50;;;12.30;;
20629;SDS011;17386;43.846;25.950;2024-03-17T00:17:14;32.22;;;13.98;;
20629;SDS011;17386;43.846;25.950;2024-03-17T00:19:40;31.67;;;13.95;;
20629;SDS011;17386;43.846;25.950;2024-03-17T00:22:06;33.17;;;14.75;;
20629;SDS011;17386;43.846;25.950;2024-03-17T00:24:34;32.45;;;15.05;;
20629;SDS011;17386;43.846;25.950;2024-03-17T00:27:00;35.75;;;15.13;;
20629;SDS011;17386;43.846;25.950;2024-03-17T00:29:26;26.48;;;12.80;;
20629;SDS011;17386;43.846;25.950;2024-03-17T00:31:53;30.63;;;14.02;;
20629;SDS011;17386;43.846;25.950;2024-03-17T00:34:19;29.98;;;12.63;;
20629;SDS011;17386;43.846;25.950;2024-03-17T00:36:45;31.90;;;13.38;;
20629;SDS011;17386;43.846;25.950;2024-03-17T00:39:11;30.83;;;14.55;;
20629;SDS011;17386;43.846;25.950;2024-03-17T00:41:37;34.97;;;15.00;;
20629;SDS011;17386;43.846;25.950;2024-03-17T00:44:03;30.77;;;14.02;;
20629;SDS011;17386;43.846;25.950;2024-03-17T00:46:29;30.02;;;13.32;;
20629;SDS011;17386;43.846;25.950;2024-03-17T00:48:55;28.70;;;12.05;;
20629;SDS011;17386;43.846;25.950;2024-03-17T00:51:21;24.08;;;11.95;;
20629;SDS011;17386;43.846;25.950;2024-03-17T00:53:47;25.67;;;12.20;;
20629;SDS011;17386;43.846;25.950;2024-03-17T00:56:12;25.80;;;11.55;;
20629;SDS011;17386;43.846;25.950;2024-03-17T00:58:38;27.88;;;12.05;;
20629;SDS011;17386;43.846;25.950;2024-03-17T01:01:03;29.40;;;11.85;;
20629;SDS011;17386;43.846;25.950;2024-03-17T01:03:29;28.20;;;12.30;;
20629;SDS011;17386;43.846;25.950;2024-03-17T01:05:55;22.70;;;11.00;;
20629;SDS011;17386;43.846;25.950;2024-03-17T01:08:20;24.10;;;11.10;;
20629;SDS011;17386;43.846;25.950;2024-03-17T01:10:46;27.02;;;11.43;;
20629;SDS011;17386;43.846;25.950;2024-03-17T01:13:16;25.58;;;11.05;;
20629;SDS011;17386;43.846;25.950;2024-03-17T01:15:42;25.88;;;11.50;;
20629;SDS011;17386;43.846;25.950;2024-03-17T01:18:08;21.60;;;10.98;;
20629;SDS011;17386;43.846;25.950;2024-03-17T01:20:37;20.60;;;9.65;;
20629;SDS011;17386;43.846;25.950;2024-03-17T01:23:03;29.45;;;12.30;;
20629;SDS011;17386;43.846;25.950;2024-03-17T01:25:29;30.40;;;12.80;;
20629;SDS011;17386;43.846;25.950;2024-03-17T01:27:56;23.58;;;11.43;;
20629;SDS011;17386;43.846;25.950;2024-03-17T01:30:22;28.92;;;12.23;;
20629;SDS011;17386;43.846;25.950;2024-03-17T01:32:48;28.52;;;11.18;;
20629;SDS011;17386;43.846;25.950;2024-03-17T01:35:16;25.42;;;12.10;;
20629;SDS011;17386;43.846;25.950;2024-03-17T01:37:42;25.30;;;11.18;;
20629;SDS011;17386;43.846;25.950;2024-03-17T01:40:09;20.55;;;10.75;;
20629;SDS011;17386;43.846;25.950;2024-03-17T01:42:38;22.50;;;10.27;;
20629;SDS011;17386;43.846;25.950;2024-03-17T01:47:45;24.50;;;11.18;;
20629;SDS011;17386;43.846;25.950;2024-03-17T01:50:11;27.23;;;10.70;;
20629;SDS011;17386;43.846;25.950;2024-03-17T01:52:38;20.90;;;9.73;;
20629;SDS011;17386;43.846;25.950;2024-03-17T01:55:04;20.75;;;9.30;;
20629;SDS011;17386;43.846;25.950;2024-03-17T01:57:31;22.67;;;9.68;;
20629;SDS011;17386;43.846;25.950;2024-03-17T01:59:57;25.48;;;10.68;;
20629;SDS011;17386;43.846;25.950;2024-03-17T02:02:23;26.35;;;10.60;;
20629;SDS011;17386;43.846;25.950;2024-03-17T02:04:48;23.92;;;11.57;;
20629;SDS011;17386;43.846;25.950;2024-03-17T02:07:15;22.13;;;10.30;;
20629;SDS011;17386;43.846;25.950;2024-03-17T02:09:40;23.23;;;10.65;;
20629;SDS011;17386;43.846;25.950;2024-03-17T02:12:08;26.00;;;10.55;;
20629;SDS011;17386;43.846;25.950;2024-03-17T02:14:34;22.60;;;10.52;;
20629;SDS011;17386;43.846;25.950;2024-03-17T02:17:00;23.55;;;10.70;;
20629;SDS011;17386;43.846;25.950;2024-03-17T02:19:26;24.90;;;9.85;;
20629;SDS011;17386;43.846;25.950;2024-03-17T02:21:51;23.13;;;10.10;;
20629;SDS011;17386;43.846;25.950;2024-03-17T02:24:16;23.23;;;10.38;;
20629;SDS011;17386;43.846;25.950;2024-03-17T02:26:42;24.67;;;10.32;;
20629;SDS011;17386;43.846;25.950;2024-03-17T02:29:07;22.88;;;9.93;;
20629;SDS011;17386;43.846;25.950;2024-03-17T02:31:33;23.15;;;10.55;;
20629;SDS011;17386;43.846;25.950;2024-03-17T02:33:58;23.13;;;11.25;;
20629;SDS011;17386;43.846;25.950;2024-03-17T02:36:24;25.35;;;11.05;;
20629;SDS011;17386;43.846;25.950;2024-03-17T02:38:49;25.20;;;11.32;;
20629;SDS011;17386;43.846;25.950;2024-03-17T02:41:33;23.75;;;10.82;;
20629;SDS011;17386;43.846;25.950;2024-03-17T02:43:59;23.00;;;10.52;;
20629;SDS011;17386;43.846;25.950;2024-03-17T02:46:24;21.48;;;10.18;;
20629;SDS011;17386;43.846;25.950;2024-03-17T02:48:51;22.60;;;10.45;;
20629;SDS011;17386;43.846;25.950;2024-03-17T02:51:19;22.15;;;10.02;;
20629;SDS011;17386;43.846;25.950;2024-03-17T02:53:47;25.35;;;10.68;;
20629;SDS011;17386;43.846;25.950;2024-03-17T02:56:14;27.58;;;10.35;;
20629;SDS011;17386;43.846;25.950;2024-03-17T02:58:42;23.80;;;10.95;;
20629;SDS011;17386;43.846;25.950;2024-03-17T03:01:08;27.67;;;11.43;;
20629;SDS011;17386;43.846;25.950;2024-03-17T03:03:35;32.63;;;12.77;;
20629;SDS011;17386;43.846;25.950;2024-03-17T03:06:01;30.20;;;13.45;;
20629;SDS011;17386;43.846;25.950;2024-03-17T03:08:32;34.00;;;14.10;;
20629;SDS011;17386;43.846;25.950;2024-03-17T03:10:59;29.40;;;12.18;;
20629;SDS011;17386;43.846;25.950;2024-03-17T03:13:24;24.80;;;12.23;;
20629;SDS011;17386;43.846;25.950;2024-03-17T03:15:50;29.75;;;13.60;;
20629;SDS011;17386;43.846;25.950;2024-03-17T03:18:16;31.77;;;14.45;;
20629;SDS011;17386;43.846;25.950;2024-03-17T03:20:42;31.83;;;14.35;;
20629;SDS011;17386;43.846;25.950;2024-03-17T03:23:08;31.63;;;13.02;;
20629;SDS011;17386;43.846;25.950;2024-03-17T03:25:34;29.42;;;12.95;;
20629;SDS011;17386;43.846;25.950;2024-03-17T03:28:00;30.15;;;13.43;;
20629;SDS011;17386;43.846;25.950;2024-03-17T03:30:26;29.40;;;13.13;;
20629;SDS011;17386;43.846;25.950;2024-03-17T03:32:52;26.98;;;12.43;;
20629;SDS011;17386;43.846;25.950;2024-03-17T03:35:18;28.95;;;11.68;;
20629;SDS011;17386;43.846;25.950;2024-03-17T03:37:44;26.42;;;11.23;;
20629;SDS011;17386;43.846;25.950;2024-03-17T03:40:10;25.65;;;11.85;;
20629;SDS011;17386;43.846;25.950;2024-03-17T03:42:41;21.40;;;10.50;;
20629;SDS011;17386;43.846;25.950;2024-03-17T03:45:10;22.80;;;10.23;;
20629;SDS011;17386;43.846;25.950;2024-03-17T03:47:39;25.88;;;10.80;;
20629;SDS011;17386;43.846;25.950;2024-03-17T03:50:11;27.02;;;11.20;;
20629;SDS011;17386;43.846;25.950;2024-03-17T03:52:39;27.30;;;10.77;;
20629;SDS011;17386;43.846;25.950;2024-03-17T03:55:06;28.77;;;11.52;;
20629;SDS011;17386;43.846;25.950;2024-03-17T03:57:37;28.30;;;11.68;;
20629;SDS011;17386;43.846;25.950;2024-03-17T04:00:03;29.50;;;12.57;;
20629;SDS011;17386;43.846;25.950;2024-03-17T04:02:41;24.95;;;11.10;;
20629;SDS011;17386;43.846;25.950;2024-03-17T04:05:08;23.30;;;10.75;;
20629;SDS011;17386;43.846;25.950;2024-03-17T04:07:34;22.15;;;9.45;;
20629;SDS011;17386;43.846;25.950;2024-03-17T04:10:01;22.70;;;10.27;;
20629;SDS011;17386;43.846;25.950;2024-03-17T04:12:28;22.35;;;9.60;;
20629;SDS011;17386;43.846;25.950;2024-03-17T04:14:56;19.52;;;9.38;;
20629;SDS011;17386;43.846;25.950;2024-03-17T04:17:25;21.80;;;9.30;;
20629;SDS011;17386;43.846;25.950;2024-03-17T04:19:52;25.92;;;10.45;;
20629;SDS011;17386;43.846;25.950;2024-03-17T04:22:19;23.58;;;11.05;;
20629;SDS011;17386;43.846;25.950;2024-03-17T04:24:45;22.60;;;10.20;;
20629;SDS011;17386;43.846;25.950;2024-03-17T04:27:12;21.88;;;10.02;;
20629;SDS011;17386;43.846;25.950;2024-03-17T04:29:38;25.80;;;10.57;;
20629;SDS011;17386;43.846;25.950;2024-03-17T04:32:04;25.00;;;10.32;;
20629;SDS011;17386;43.846;25.950;2024-03-17T04:34:30;20.63;;;9.50;;
20629;SDS011;17386;43.846;25.950;2024-03-17T04:36:57;23.67;;;9.43;;
20629;SDS011;17386;43.846;25.950;2024-03-17T04:39:23;26.98;;;10.98;;
20629;SDS011;17386;43.846;25.950;2024-03-17T04:41:49;21.85;;;9.88;;
20629;SDS011;17386;43.846;25.950;2024-03-17T04:44:15;25.50;;;10.85;;
20629;SDS011;17386;43.846;25.950;2024-03-17T04:46:41;25.83;;;10.75;;
20629;SDS011;17386;43.846;25.950;2024-03-17T04:49:06;24.92;;;11.50;;
20629;SDS011;17386;43.846;25.950;2024-03-17T04:51:33;32.45;;;11.88;;
20629;SDS011;17386;43.846;25.950;2024-03-17T04:53:59;38.65;;;14.20;;
20629;SDS011;17386;43.846;25.950;2024-03-17T04:56:24;33.30;;;12.50;;
20629;SDS011;17386;43.846;25.950;2024-03-17T04:58:50;31.92;;;15.10;;
20629;SDS011;17386;43.846;25.950;2024-03-17T05:01:16;39.08;;;21.05;;
20629;SDS011;17386;43.846;25.950;2024-03-17T05:03:41;30.63;;;16.48;;
20629;SDS011;17386;43.846;25.950;2024-03-17T05:06:07;31.65;;;15.73;;
20629;SDS011;17386;43.846;25.950;2024-03-17T05:08:33;28.27;;;13.93;;
20629;SDS011;17386;43.846;25.950;2024-03-17T05:11:03;25.73;;;12.73;;
20629;SDS011;17386;43.846;25.950;2024-03-17T05:13:30;29.25;;;13.95;;
20629;SDS011;17386;43.846;25.950;2024-03-17T05:16:00;24.92;;;11.82;;
20629;SDS011;17386;43.846;25.950;2024-03-17T05:18:26;25.48;;;11.20;;
20629;SDS011;17386;43.846;25.950;2024-03-17T05:20:58;23.67;;;11.60;;
20629;SDS011;17386;43.846;25.950;2024-03-17T05:23:25;28.00;;;13.25;;
20629;SDS011;17386;43.846;25.950;2024-03-17T05:25:52;24.52;;;13.20;;
20629;SDS011;17386;43.846;25.950;2024-03-17T05:28:18;25.75;;;12.63;;
20629;SDS011;17386;43.846;25.950;2024-03-17T05:30:43;24.85;;;11.73;;
20629;SDS011;17386;43.846;25.950;2024-03-17T05:33:09;28.23;;;14.27;;
20629;SDS011;17386;43.846;25.950;2024-03-17T05:35:35;24.40;;;11.65;;
20629;SDS011;17386;43.846;25.950;2024-03-17T05:38:00;27.55;;;12.20;;
20629;SDS011;17386;43.846;25.950;2024-03-17T05:40:26;26.73;;;12.10;;
20629;SDS011;17386;43.846;25.950;2024-03-17T05:42:51;23.80;;;11.02;;
20629;SDS011;17386;43.846;25.950;2024-03-17T05:45:17;27.13;;;11.23;;
20629;SDS011;17386;43.846;25.950;2024-03-17T05:47:42;19.92;;;9.65;;
20629;SDS011;17386;43.846;25.950;2024-03-17T05:50:08;25.27;;;11.02;;
20629;SDS011;17386;43.846;25.950;2024-03-17T05:52:34;23.13;;;10.27;;
20629;SDS011;17386;43.846;25.950;2024-03-17T05:55:00;24.20;;;9.93;;
20629;SDS011;17386;43.846;25.950;2024-03-17T05:57:25;24.77;;;10.68;;
20629;SDS011;17386;43.846;25.950;2024-03-17T05:59:51;24.98;;;10.07;;
20629;SDS011;17386;43.846;25.950;2024-03-17T06:02:17;28.17;;;10.25;;
20629;SDS011;17386;43.846;25.950;2024-03-17T06:04:44;21.50;;;9.93;;
20629;SDS011;17386;43.846;25.950;2024-03-17T06:07:09;22.50;;;10.10;;
20629;SDS011;17386;43.846;25.950;2024-03-17T06:09:35;24.92;;;10.07;;
20629;SDS011;17386;43.846;25.950;2024-03-17T06:12:00;22.70;;;10.43;;
20629;SDS011;17386;43.846;25.950;2024-03-17T06:14:26;24.40;;;10.32;;
20629;SDS011;17386;43.846;25.950;2024-03-17T06:16:51;22.48;;;10.57;;
20629;SDS011;17386;43.846;25.950;2024-03-17T06:19:17;23.33;;;10.10;;
20629;SDS011;17386;43.846;25.950;2024-03-17T06:21:42;22.02;;;10.10;;
20629;SDS011;17386;43.846;25.950;2024-03-17T06:24:08;22.90;;;10.43;;
20629;SDS011;17386;43.846;25.950;2024-03-17T06:26:33;22.17;;;10.32;;
20629;SDS011;17386;43.846;25.950;2024-03-17T06:29:00;22.98;;;10.27;;
20629;SDS011;17386;43.846;25.950;2024-03-17T06:31:26;22.27;;;10.00;;
20629;SDS011;17386;43.846;25.950;2024-03-17T06:33:52;25.17;;;10.38;;
20629;SDS011;17386;43.846;25.950;2024-03-17T06:36:17;20.58;;;9.25;;
20629;SDS011;17386;43.846;25.950;2024-03-17T06:38:43;18.02;;;8.82;;
20629;SDS011;17386;43.846;25.950;2024-03-17T06:41:11;22.42;;;10.13;;
20629;SDS011;17386;43.846;25.950;2024-03-17T06:43:40;18.83;;;8.82;;
20629;SDS011;17386;43.846;25.950;2024-03-17T06:46:08;19.58;;;9.00;;
20629;SDS011;17386;43.846;25.950;2024-03-17T06:48:34;23.13;;;9.82;;
20629;SDS011;17386;43.846;25.950;2024-03-17T06:50:59;20.85;;;8.93;;
20629;SDS011;17386;43.846;25.950;2024-03-17T06:53:25;19.17;;;8.70;;
20629;SDS011;17386;43.846;25.950;2024-03-17T06:55:55;23.40;;;10.43;;
20629;SDS011;17386;43.846;25.950;2024-03-17T06:58:22;18.80;;;9.15;;
20629;SDS011;17386;43.846;25.950;2024-03-17T07:00:57;27.30;;;9.23;;
20629;SDS011;17386;43.846;25.950;2024-03-17T07:03:25;16.30;;;8.60;;
20629;SDS011;17386;43.846;25.950;2024-03-17T07:05:52;17.20;;;9.25;;
20629;SDS011;17386;43.846;25.950;2024-03-17T07:08:19;17.25;;;8.25;;
20629;SDS011;17386;43.846;25.950;2024-03-17T07:10:55;17.90;;;8.88;;
20629;SDS011;17386;43.846;25.950;2024-03-17T07:13:21;21.85;;;9.45;;
20629;SDS011;17386;43.846;25.950;2024-03-17T07:15:47;22.33;;;10.60;;
20629;SDS011;17386;43.846;25.950;2024-03-17T07:18:13;20.35;;;10.27;;
20629;SDS011;17386;43.846;25.950;2024-03-17T07:20:38;22.33;;;10.15;;
20629;SDS011;17386;43.846;25.950;2024-03-17T07:23:04;22.17;;;9.40;;
20629;SDS011;17386;43.846;25.950;2024-03-17T07:25:30;20.42;;;9.82;;
20629;SDS011;17386;43.846;25.950;2024-03-17T07:27:56;21.92;;;10.68;;
20629;SDS011;17386;43.846;25.950;2024-03-17T07:30:21;24.63;;;10.73;;
20629;SDS011;17386;43.846;25.950;2024-03-17T07:32:47;17.85;;;9.98;;
20629;SDS011;17386;43.846;25.950;2024-03-17T07:35:12;21.10;;;10.77;;
20629;SDS011;17386;43.846;25.950;2024-03-17T07:37:39;20.50;;;10.02;;
20629;SDS011;17386;43.846;25.950;2024-03-17T07:40:05;18.95;;;9.27;;
20629;SDS011;17386;43.846;25.950;2024-03-17T07:42:36;21.58;;;10.38;;
20629;SDS011;17386;43.846;25.950;2024-03-17T07:45:01;22.10;;;10.27;;
20629;SDS011;17386;43.846;25.950;2024-03-17T07:47:27;22.50;;;11.38;;
20629;SDS011;17386;43.846;25.950;2024-03-17T07:50:01;20.30;;;9.98;;
20629;SDS011;17386;43.846;25.950;2024-03-17T07:52:30;23.00;;;10.68;;
20629;SDS011;17386;43.846;25.950;2024-03-17T07:54:56;22.23;;;10.25;;
20629;SDS011;17386;43.846;25.950;2024-03-17T07:57:21;24.55;;;10.48;;
20629;SDS011;17386;43.846;25.950;2024-03-17T07:59:50;25.00;;;9.73;;
20629;SDS011;17386;43.846;25.950;2024-03-17T08:02:18;19.33;;;9.20;;
20629;SDS011;17386;43.846;25.950;2024-03-17T08:04:44;22.77;;;10.68;;
20629;SDS011;17386;43.846;25.950;2024-03-17T08:07:10;19.20;;;9.65;;
20629;SDS011;17386;43.846;25.950;2024-03-17T08:09:36;20.50;;;10.20;;
20629;SDS011;17386;43.846;25.950;2024-03-17T08:12:01;22.70;;;11.43;;
20629;SDS011;17386;43.846;25.950;2024-03-17T08:14:29;23.60;;;10.93;;
20629;SDS011;17386;43.846;25.950;2024-03-17T08:16:55;22.38;;;10.82;;
20629;SDS011;17386;43.846;25.950;2024-03-17T08:19:21;20.88;;;9.77;;
20629;SDS011;17386;43.846;25.950;2024-03-17T08:21:46;20.30;;;10.02;;
20629;SDS011;17386;43.846;25.950;2024-03-17T08:24:12;23.80;;;11.00;;
20629;SDS011;17386;43.846;25.950;2024-03-17T08:26:38;18.88;;;10.05;;
20629;SDS011;17386;43.846;25.950;2024-03-17T08:29:05;19.02;;;9.52;;
20629;SDS011;17386;43.846;25.950;2024-03-17T08:31:31;25.55;;;11.50;;
20629;SDS011;17386;43.846;25.950;2024-03-17T08:33:57;22.83;;;11.07;;
20629;SDS011;17386;43.846;25.950;2024-03-17T08:36:22;23.67;;;11.75;;
20629;SDS011;17386;43.846;25.950;2024-03-17T08:38:49;23.52;;;11.32;;
20629;SDS011;17386;43.846;25.950;2024-03-17T08:41:15;23.00;;;10.07;;
20629;SDS011;17386;43.846;25.950;2024-03-17T08:43:41;20.50;;;10.95;;
20629;SDS011;17386;43.846;25.950;2024-03-17T08:46:08;23.98;;;11.45;;
20629;SDS011;17386;43.846;25.950;2024-03-17T08:48:35;23.38;;;11.35;;
20629;SDS011;17386;43.846;25.950;2024-03-17T08:51:03;23.45;;;10.55;;
20629;SDS011;17386;43.846;25.950;2024-03-17T08:53:30;21.10;;;9.57;;
20629;SDS011;17386;43.846;25.950;2024-03-17T08:55:56;24.08;;;11.02;;
20629;SDS011;17386;43.846;25.950;2024-03-17T08:58:23;21.42;;;10.55;;
20629;SDS011;17386;43.846;25.950;2024-03-17T09:00:48;19.70;;;9.75;;
20629;SDS011;17386;43.846;25.950;2024-03-17T09:03:14;19.75;;;10.15;;
20629;SDS011;17386;43.846;25.950;2024-03-17T09:05:40;22.33;;;10.93;;
20629;SDS011;17386;43.846;25.950;2024-03-17T09:08:19;27.25;;;11.77;;
20629;SDS011;17386;43.846;25.950;2024-03-17T09:10:47;23.98;;;11.93;;
20629;SDS011;17386;43.846;25.950;2024-03-17T09:13:14;21.15;;;10.35;;
20629;SDS011;17386;43.846;25.950;2024-03-17T09:15:49;21.75;;;11.20;;
20629;SDS011;17386;43.846;25.950;2024-03-17T09:18:15;21.35;;;11.10;;
20629;SDS011;17386;43.846;25.950;2024-03-17T09:20:41;20.80;;;10.40;;
20629;SDS011;17386;43.846;25.950;2024-03-17T09:23:07;19.67;;;9.70;;
20629;SDS011;17386;43.846;25.950;2024-03-17T09:25:32;20.13;;;11.05;;
20629;SDS011;17386;43.846;25.950;2024-03-17T09:27:58;20.70;;;10.13;;
20629;SDS011;17386;43.846;25.950;2024-03-17T09:30:23;23.30;;;10.27;;
20629;SDS011;17386;43.846;25.950;2024-03-17T09:32:49;20.50;;;10.27;;
20629;SDS011;17386;43.846;25.950;2024-03-17T09:35:15;18.75;;;9.20;;
20629;SDS011;17386;43.846;25.950;2024-03-17T09:37:43;19.63;;;10.05;;
20629;SDS011;17386;43.846;25.950;2024-03-17T09:40:15;21.17;;;10.05;;
20629;SDS011;17386;43.846;25.950;2024-03-17T09:42:41;20.58;;;9.52;;
20629;SDS011;17386;43.846;25.950;2024-03-17T09:45:10;19.85;;;9.50;;
20629;SDS011;17386;43.846;25.950;2024-03-17T09:47:36;15.50;;;8.70;;
20629;SDS011;17386;43.846;25.950;2024-03-17T09:50:02;20.17;;;9.55;;
20629;SDS011;17386;43.846;25.950;2024-03-17T09:52:28;17.58;;;9.38;;
20629;SDS011;17386;43.846;25.950;2024-03-17T09:55:01;19.65;;;9.60;;
20629;SDS011;17386;43.846;25.950;2024-03-17T09:57:36;18.38;;;8.98;;
20629;SDS011;17386;43.846;25.950;2024-03-17T10:00:15;17.50;;;8.25;;
20629;SDS011;17386;43.846;25.950;2024-03-17T10:02:41;14.95;;;7.85;;
20629;SDS011;17386;43.846;25.950;2024-03-17T10:05:19;14.55;;;8.32;;
20629;SDS011;17386;43.846;25.950;2024-03-17T10:07:50;15.65;;;7.63;;
20629;SDS011;17386;43.846;25.950;2024-03-17T10:10:16;18.15;;;8.55;;
20629;SDS011;17386;43.846;25.950;2024-03-17T10:12:43;16.65;;;8.27;;
20629;SDS011;17386;43.846;25.950;2024-03-17T10:15:10;13.40;;;7.00;;
20629;SDS011;17386;43.846;25.950;2024-03-17T10:17:37;14.07;;;7.07;;
20629;SDS011;17386;43.846;25.950;2024-03-17T10:22:58;16.38;;;7.68;;
20629;SDS011;17386;43.846;25.950;2024-03-17T10:25:39;16.17;;;8.07;;
20629;SDS011;17386;43.846;25.950;2024-03-17T10:28:14;14.18;;;6.95;;
20629;SDS011;17386;43.846;25.950;2024-03-17T10:30:41;13.50;;;6.70;;
20629;SDS011;17386;43.846;25.950;2024-03-17T10:33:08;11.40;;;6.32;;
20629;SDS011;17386;43.846;25.950;2024-03-17T10:35:47;11.20;;;6.40;;
20629;SDS011;17386;43.846;25.950;2024-03-17T10:38:13;12.60;;;6.32;;
20629;SDS011;17386;43.846;25.950;2024-03-17T10:40:39;17.55;;;6.70;;
20629;SDS011;17386;43.846;25.950;2024-03-17T10:43:06;13.98;;;6.85;;
20629;SDS011;17386;43.846;25.950;2024-03-17T10:45:33;11.50;;;6.65;;
20629;SDS011;17386;43.846;25.950;2024-03-17T10:48:06;10.77;;;6.13;;
20629;SDS011;17386;43.846;25.950;2024-03-17T10:50:35;12.43;;;6.55;;
20629;SDS011;17386;43.846;25.950;2024-03-17T10:53:03;10.10;;;4.65;;
20629;SDS011;17386;43.846;25.950;2024-03-17T10:55:38;9.65;;;5.93;;
20629;SDS011;17386;43.846;25.950;2024-03-17T10:58:53;10.77;;;5.65;;
20629;SDS011;17386;43.846;25.950;2024-03-17T11:01:11;9.35;;;4.20;;
20629;SDS011;17386;43.846;25.950;2024-03-17T11:03:39;9.73;;;5.00;;
20629;SDS011;17386;43.846;25.950;2024-03-17T11:06:05;10.40;;;5.47;;
20629;SDS011;17386;43.846;25.950;2024-03-17T11:08:33;11.13;;;5.35;;
20629;SDS011;17386;43.846;25.950;2024-03-17T11:11:00;12.50;;;5.40;;
20629;SDS011;17386;43.846;25.950;2024-03-17T11:13:27;9.48;;;4.82;;
20629;SDS011;17386;43.846;25.950;2024-03-17T11:15:54;7.95;;;4.07;;
20629;SDS011;17386;43.846;25.950;2024-03-17T11:23:32;8.15;;;4.63;;
20629;SDS011;17386;43.846;25.950;2024-03-17T11:25:58;9.68;;;5.35;;
20629;SDS011;17386;43.846;25.950;2024-03-17T11:31:07;8.55;;;4.40;;
20629;SDS011;17386;43.846;25.950;2024-03-17T11:34:03;6.82;;;3.50;;
20629;SDS011;17386;43.846;25.950;2024-03-17T11:36:35;9.70;;;4.75;;
20629;SDS011;17386;43.846;25.950;2024-03-17T11:41:46;7.65;;;3.85;;
20629;SDS011;17386;43.846;25.950;2024-03-17T11:47:06;8.55;;;3.17;;
20629;SDS011;17386;43.846;25.950;2024-03-17T11:51:58;11.65;;;5.90;;
20629;SDS011;17386;43.846;25.950;2024-03-17T11:56:53;7.90;;;3.63;;
20629;SDS011;17386;43.846;25.950;2024-03-17T11:59:20;8.85;;;4.45;;
20629;SDS011;17386;43.846;25.950;2024-03-17T12:01:47;5.63;;;3.22;;
20629;SDS011;17386;43.846;25.950;2024-03-17T12:04:14;7.10;;;3.63;;
20629;SDS011;17386;43.846;25.950;2024-03-17T12:06:44;7.18;;;3.95;;
20629;SDS011;17386;43.846;25.950;2024-03-17T12:09:20;9.02;;;3.88;;
20629;SDS011;17386;43.846;25.950;2024-03-17T12:11:50;5.75;;;3.08;;
20629;SDS011;17386;43.846;25.950;2024-03-17T12:14:22;7.05;;;3.45;;
20629;SDS011;17386;43.846;25.950;2024-03-17T12:16:54;4.78;;;2.83;;
20629;SDS011;17386;43.846;25.950;2024-03-17T12:19:22;5.10;;;2.88;;
20629;SDS011;17386;43.846;25.950;2024-03-17T12:21:49;6.32;;;3.17;;
20629;SDS011;17386;43.846;25.950;2024-03-17T12:24:19;6.30;;;3.05;;
20629;SDS011;17386;43.846;25.950;2024-03-17T12:26:47;9.70;;;3.95;;
20629;SDS011;17386;43.846;25.950;2024-03-17T12:29:22;7.32;;;4.03;;
20629;SDS011;17386;43.846;25.950;2024-03-17T12:31:51;6.82;;;3.67;;
20629;SDS011;17386;43.846;25.950;2024-03-17T12:34:18;7.30;;;4.10;;
20629;SDS011;17386;43.846;25.950;2024-03-17T12:36:45;5.35;;;3.03;;
20629;SDS011;17386;43.846;25.950;2024-03-17T12:39:18;7.40;;;3.83;;
20629;SDS011;17386;43.846;25.950;2024-03-17T12:44:35;7.78;;;4.57;;
20629;SDS011;17386;43.846;25.950;2024-03-17T12:47:08;10.18;;;4.95;;
20629;SDS011;17386;43.846;25.950;2024-03-17T12:49:44;10.70;;;5.53;;
20629;SDS011;17386;43.846;25.950;2024-03-17T12:52:18;10.40;;;4.47;;
20629;SDS011;17386;43.846;25.950;2024-03-17T12:57:50;11.80;;;5.68;;
20629;SDS011;17386;43.846;25.950;2024-03-17T13:00:35;11.13;;;4.68;;
20629;SDS011;17386;43.846;25.950;2024-03-17T13:03:01;9.50;;;5.28;;
20629;SDS011;17386;43.846;25.950;2024-03-17T13:05:30;10.70;;;5.60;;
20629;SDS011;17386;43.846;25.950;2024-03-17T13:07:57;9.02;;;4.60;;
20629;SDS011;17386;43.846;25.950;2024-03-17T13:10:24;9.00;;;4.70;;
20629;SDS011;17386;43.846;25.950;2024-03-17T13:13:00;8.90;;;4.72;;
20629;SDS011;17386;43.846;25.950;2024-03-17T13:15:28;8.30;;;4.20;;
20629;SDS011;17386;43.846;25.950;2024-03-17T13:17:57;8.50;;;4.55;;
20629;SDS011;17386;43.846;25.950;2024-03-17T13:20:23;7.47;;;3.83;;
20629;SDS011;17386;43.846;25.950;2024-03-17T13:22:49;8.13;;;4.45;;
20629;SDS011;17386;43.846;25.950;2024-03-17T13:25:16;8.35;;;4.28;;
20629;SDS011;17386;43.846;25.950;2024-03-17T13:27:43;8.20;;;4.78;;
20629;SDS011;17386;43.846;25.950;2024-03-17T13:30:10;8.02;;;4.80;;
20629;SDS011;17386;43.846;25.950;2024-03-17T13:32:36;11.32;;;4.50;;
20629;SDS011;17386;43.846;25.950;2024-03-17T13:35:02;9.70;;;4.07;;
20629;SDS011;17386;43.846;25.950;2024-03-17T13:37:28;9.43;;;4.65;;
20629;SDS011;17386;43.846;25.950;2024-03-17T13:39:54;7.50;;;4.45;;
20629;SDS011;17386;43.846;25.950;2024-03-17T13:42:19;7.60;;;3.83;;
20629;SDS011;17386;43.846;25.950;2024-03-17T13:44:45;7.43;;;4.45;;
20629;SDS011;17386;43.846;25.950;2024-03-17T13:47:11;8.05;;;4.30;;
20629;SDS011;17386;43.846;25.950;2024-03-17T13:49:37;17.02;;;7.22;;
20629;SDS011;17386;43.846;25.950;2024-03-17T13:52:03;11.25;;;5.28;;
20629;SDS011;17386;43.846;25.950;2024-03-17T13:54:29;11.00;;;4.82;;
20629;SDS011;17386;43.846;25.950;2024-03-17T13:56:55;8.25;;;4.80;;
20629;SDS011;17386;43.846;25.950;2024-03-17T13:59:23;10.35;;;5.15;;
20629;SDS011;17386;43.846;25.950;2024-03-17T14:01:50;10.95;;;4.82;;
20629;SDS011;17386;43.846;25.950;2024-03-17T14:04:16;8.30;;;4.50;;
20629;SDS011;17386;43.846;25.950;2024-03-17T14:06:44;8.15;;;4.90;;
20629;SDS011;17386;43.846;25.950;2024-03-17T14:09:11;7.97;;;4.25;;
20629;SDS011;17386;43.846;25.950;2024-03-17T14:11:41;9.07;;;4.50;;
20629;SDS011;17386;43.846;25.950;2024-03-17T14:14:07;7.55;;;4.15;;
20629;SDS011;17386;43.846;25.950;2024-03-17T14:16:33;8.07;;;4.03;;
20629;SDS011;17386;43.846;25.950;2024-03-17T14:19:01;8.05;;;3.72;;
20629;SDS011;17386;43.846;25.950;2024-03-17T14:21:27;8.63;;;4.13;;
20629;SDS011;17386;43.846;25.950;2024-03-17T14:23:54;10.57;;;4.95;;
20629;SDS011;17386;43.846;25.950;2024-03-17T14:26:20;8.35;;;4.32;;
20629;SDS011;17386;43.846;25.950;2024-03-17T14:28:46;9.07;;;4.45;;
20629;SDS011;17386;43.846;25.950;2024-03-17T14:31:12;9.75;;;4.05;;
20629;SDS011;17386;43.846;25.950;2024-03-17T14:33:37;6.72;;;4.05;;
20629;SDS011;17386;43.846;25.950;2024-03-17T14:36:03;7.05;;;4.18;;
20629;SDS011;17386;43.846;25.950;2024-03-17T14:38:29;7.38;;;3.95;;
20629;SDS011;17386;43.846;25.950;2024-03-17T14:40:55;6.55;;;3.55;;
20629;SDS011;17386;43.846;25.950;2024-03-17T14:43:20;6.70;;;3.65;;
20629;SDS011;17386;43.846;25.950;2024-03-17T14:45:46;7.97;;;4.38;;